Time;durP1;ratioP1;P1;durP2;ratioP2;P2;SDS_P1;SDS_P2;PMS_P1;PMS_P2;Temp;Humidity;BMP_temperature;BMP_pressure;BME280_temperature;BME280_humidity;BME280_pressure;Samples;Min_cycle;Max_cycle;Signal;HPM_P1;HPM_P2
2021/08/07 00:00:19;;;;;;;2.90;2.70;;;19.90;99.90;;;;;;5088447;27;20810;-68
2021/08/07 00:02:46;;;;;;;2.70;2.50;;;19.90;99.90;;;;;;5087411;27;20464;-66
2021/08/07 00:05:13;;;;;;;2.70;2.50;;;19.90;99.90;;;;;;5088912;27;20472;-69
2021/08/07 00:07:40;;;;;;;3.37;2.70;;;19.90;99.90;;;;;;5086283;27;20476;-67
2021/08/07 00:10:08;;;;;;;2.70;2.50;;;19.90;99.90;;;;;;5088069;27;20960;-68
2021/08/07 00:12:36;;;;;;;2.43;2.23;;;19.90;99.90;;;;;;5087951;27;20473;-69
2021/08/07 00:15:03;;;;;;;3.17;2.97;;;19.90;99.90;;;;;;5088319;27;20816;-67
2021/08/07 00:17:34;;;;;;;4.93;3.50;;;19.90;99.90;;;;;;5087458;27;20465;-68
2021/08/07 00:20:01;;;;;;;3.00;2.80;;;19.90;99.90;;;;;;5108657;27;20456;-69
2021/08/07 00:22:28;;;;;;;2.60;2.40;;;19.90;99.90;;;;;;5102660;28;20461;-68
2021/08/07 00:24:55;;;;;;;2.90;2.70;;;19.90;99.90;;;;;;5108839;28;21200;-68
2021/08/07 00:27:22;;;;;;;3.33;3.13;;;19.90;99.90;;;;;;5092072;27;20465;-70
2021/08/07 00:29:49;;;;;;;3.13;2.90;;;19.80;99.90;;;;;;5085709;28;20468;-68
2021/08/07 00:32:16;;;;;;;3.00;2.63;;;19.80;99.90;;;;;;5086205;27;20461;-68
2021/08/07 00:34:45;;;;;;;2.43;2.23;;;19.80;99.90;;;;;;5087240;28;20464;-68
2021/08/07 00:37:11;;;;;;;2.90;2.70;;;19.80;99.90;;;;;;5087954;27;20469;-69
2021/08/07 00:39:39;;;;;;;3.20;2.90;;;19.80;99.90;;;;;;5086522;27;20787;-69
2021/08/07 00:42:06;;;;;;;3.00;2.70;;;19.80;99.90;;;;;;5087657;27;20468;-68
2021/08/07 00:44:33;;;;;;;3.17;2.87;;;19.80;99.90;;;;;;5087250;27;20469;-68
2021/08/07 00:46:59;;;;;;;4.10;3.70;;;19.80;99.90;;;;;;5087636;27;20464;-68
2021/08/07 00:49:26;;;;;;;5.80;5.30;;;19.80;99.90;;;;;;5085548;27;20480;-68
2021/08/07 00:51:55;;;;;;;4.30;4.00;;;19.80;99.90;;;;;;5094490;28;20475;-68
2021/08/07 00:54:22;;;;;;;3.93;3.63;;;19.80;99.90;;;;;;5105959;28;20458;-68
2021/08/07 00:56:49;;;;;;;3.10;2.60;;;19.80;99.90;;;;;;5102101;27;20472;-68
2021/08/07 00:59:16;;;;;;;4.00;3.70;;;19.80;99.90;;;;;;5098545;27;20465;-69
2021/08/07 01:01:46;;;;;;;3.33;3.03;;;19.80;99.90;;;;;;5100637;28;20969;-69
2021/08/07 01:04:18;;;;;;;3.00;2.80;;;19.70;99.90;;;;;;5110526;28;20469;-69
2021/08/07 01:06:54;;;;;;;3.93;3.50;;;19.70;99.90;;;;;;5110375;28;20517;-69
2021/08/07 01:09:30;;;;;;;3.27;3.03;;;19.70;99.90;;;;;;5109332;28;20572;-69
2021/08/07 01:12:02;;;;;;;2.70;2.50;;;19.70;99.90;;;;;;5098851;27;21167;-69
2021/08/07 01:14:34;;;;;;;3.50;3.30;;;19.70;99.90;;;;;;5102834;27;20468;-67
2021/08/07 01:17:03;;;;;;;3.20;3.00;;;19.70;99.90;;;;;;5098068;28;20470;-67
2021/08/07 01:19:38;;;;;;;3.53;3.23;;;19.70;99.90;;;;;;5111874;28;20479;-67
2021/08/07 01:22:06;;;;;;;4.03;3.20;;;19.70;99.90;;;;;;5107643;28;20472;-68
2021/08/07 01:24:39;;;;;;;3.73;3.53;;;19.70;99.90;;;;;;5093566;28;20473;-68
2021/08/07 01:27:24;;;;;;;3.23;3.03;;;19.70;99.90;;;;;;5097360;27;21831;-69
2021/08/07 01:29:52;;;;;;;4.17;2.77;;;19.60;99.90;;;;;;5103455;27;20525;-68
2021/08/07 01:32:23;;;;;;;3.27;3.07;;;19.60;99.90;;;;;;5110719;27;20464;-69
2021/08/07 01:34:50;;;;;;;3.20;3.00;;;19.70;99.90;;;;;;5107403;28;20475;-68
2021/08/07 01:37:19;;;;;;;4.03;3.73;;;19.60;99.90;;;;;;5105382;28;20468;-68
2021/08/07 01:39:51;;;;;;;2.90;2.70;;;19.60;99.90;;;;;;5110888;28;20800;-68
2021/08/07 01:42:19;;;;;;;2.90;2.70;;;19.60;99.90;;;;;;5111146;27;20488;-68
2021/08/07 01:44:46;;;;;;;3.03;2.83;;;19.60;99.90;;;;;;5107599;28;20466;-69
2021/08/07 01:47:20;;;;;;;3.63;3.33;;;19.60;99.90;;;;;;5102959;28;20791;-69
2021/08/07 01:49:55;;;;;;;3.07;2.87;;;19.60;99.90;;;;;;5106670;28;20496;-69
2021/08/07 01:52:26;;;;;;;3.13;2.83;;;19.60;99.90;;;;;;5107205;28;20779;-69
2021/08/07 01:55:02;;;;;;;3.87;3.17;;;19.60;99.90;;;;;;5102371;28;20468;-68
2021/08/07 01:57:32;;;;;;;2.80;2.60;;;19.60;99.90;;;;;;5105449;28;20457;-68
2021/08/07 02:00:01;;;;;;;3.53;3.30;;;19.60;99.90;;;;;;5111931;28;20464;-69
2021/08/07 02:02:29;;;;;;;4.00;2.67;;;19.50;99.90;;;;;;5105101;28;20961;-68
2021/08/07 02:04:58;;;;;;;3.33;3.13;;;19.50;99.90;;;;;;5112106;27;20969;-68
2021/08/07 02:07:27;;;;;;;3.53;3.23;;;19.50;99.90;;;;;;5097685;28;21163;-68
2021/08/07 02:09:56;;;;;;;3.10;2.90;;;19.50;99.90;;;;;;5100234;27;20473;-68
2021/08/07 02:12:23;;;;;;;3.50;3.30;;;19.50;99.90;;;;;;5106255;27;20471;-69
2021/08/07 02:14:53;;;;;;;3.03;2.83;;;19.50;99.90;;;;;;5108012;27;20479;-69
2021/08/07 02:17:20;;;;;;;3.30;3.10;;;19.50;99.90;;;;;;5100792;27;20468;-68
2021/08/07 02:19:48;;;;;;;3.10;2.80;;;19.50;99.90;;;;;;5113804;28;20479;-68
2021/08/07 02:22:20;;;;;;;3.50;3.20;;;19.40;99.90;;;;;;5110921;28;20472;-68
2021/08/07 02:24:47;;;;;;;4.20;3.20;;;19.40;99.90;;;;;;5105690;27;20467;-68
2021/08/07 02:27:15;;;;;;;2.97;2.77;;;19.40;99.90;;;;;;5115606;28;20786;-69
2021/08/07 02:29:43;;;;;;;2.77;2.57;;;19.40;99.90;;;;;;5109859;27;20475;-68
2021/08/07 02:32:12;;;;;;;3.70;3.40;;;19.40;99.90;;;;;;5098310;28;20803;-68
2021/08/07 02:34:40;;;;;;;2.90;2.70;;;19.40;99.90;;;;;;5109497;28;20464;-68
2021/08/07 02:37:08;;;;;;;4.47;4.07;;;19.40;99.90;;;;;;5115185;27;20950;-68
2021/08/07 02:39:35;;;;;;;3.10;2.90;;;19.40;99.90;;;;;;5113251;27;20530;-68
2021/08/07 02:42:03;;;;;;;5.50;5.00;;;19.40;99.90;;;;;;5113121;28;20472;-68
2021/08/07 02:44:31;;;;;;;5.00;4.60;;;19.30;99.90;;;;;;5107025;28;20476;-68
2021/08/07 02:46:58;;;;;;;3.13;2.93;;;19.30;99.90;;;;;;5108000;27;20465;-68
2021/08/07 02:49:26;;;;;;;4.63;4.23;;;19.30;99.90;;;;;;5108498;28;20457;-68
2021/08/07 02:51:54;;;;;;;4.63;4.23;;;19.30;99.90;;;;;;5106851;28;20464;-68
2021/08/07 02:54:21;;;;;;;5.07;3.60;;;19.30;99.90;;;;;;5114298;28;20460;-69
2021/08/07 02:56:48;;;;;;;3.57;3.37;;;19.30;99.90;;;;;;5103566;28;20538;-69
2021/08/07 02:59:15;;;;;;;3.37;3.17;;;19.30;99.90;;;;;;5104616;27;20457;-68
2021/08/07 03:01:42;;;;;;;3.67;3.27;;;19.30;99.90;;;;;;5111271;27;20469;-68
2021/08/07 03:04:09;;;;;;;4.97;3.33;;;19.30;99.90;;;;;;5110121;27;20464;-69
2021/08/07 03:06:37;;;;;;;4.27;3.20;;;19.30;99.90;;;;;;5112674;28;20911;-68
2021/08/07 03:09:04;;;;;;;3.63;3.33;;;19.30;99.90;;;;;;5111459;28;20483;-68
2021/08/07 03:11:31;;;;;;;185.33;148.53;;;19.20;99.90;;;;;;5104718;28;20543;-68
2021/08/07 03:13:58;;;;;;;69.63;62.03;;;19.30;99.90;;;;;;5107307;27;20487;-69
2021/08/07 03:16:27;;;;;;;38.80;34.63;;;19.40;99.90;;;;;;5109928;27;20468;-69
2021/08/07 03:18:55;;;;;;;20.80;17.13;;;19.40;99.90;;;;;;5103502;27;20456;-68
2021/08/07 03:21:22;;;;;;;10.60;9.43;;;19.50;99.90;;;;;;5106425;27;20460;-68
2021/08/07 03:23:50;;;;;;;5.90;5.40;;;19.50;99.90;;;;;;5104651;28;20479;-68
2021/08/07 03:26:17;;;;;;;4.70;4.30;;;19.50;99.90;;;;;;5100807;28;20453;-68
2021/08/07 03:28:44;;;;;;;3.90;3.60;;;19.50;99.90;;;;;;5112412;27;20465;-68
2021/08/07 03:31:11;;;;;;;3.80;3.50;;;19.50;99.90;;;;;;5103512;28;20475;-68
2021/08/07 03:33:38;;;;;;;4.73;3.03;;;19.50;99.90;;;;;;5113391;28;20471;-69
2021/08/07 03:36:05;;;;;;;5.63;3.50;;;19.40;99.90;;;;;;5100469;28;20469;-68
2021/08/07 03:38:32;;;;;;;3.07;2.83;;;19.40;99.90;;;;;;5109609;28;20480;-69
2021/08/07 03:41:00;;;;;;;2.90;2.70;;;19.40;99.90;;;;;;5114439;27;20471;-68
2021/08/07 03:43:27;;;;;;;3.07;2.87;;;19.40;99.90;;;;;;5106813;28;20460;-69
2021/08/07 03:45:54;;;;;;;3.00;2.80;;;19.40;99.90;;;;;;5110884;27;20490;-69
2021/08/07 03:48:21;;;;;;;42.17;35.10;;;19.30;99.90;;;;;;5102092;28;20468;-69
2021/08/07 03:50:48;;;;;;;37.73;32.17;;;19.40;99.90;;;;;;5114153;27;20468;-69
2021/08/07 03:53:15;;;;;;;29.00;25.90;;;19.40;99.90;;;;;;5113320;27;20468;-69
2021/08/07 03:55:42;;;;;;;36.97;33.10;;;19.50;99.90;;;;;;5113107;27;20464;-70
2021/08/07 03:58:11;;;;;;;48.87;43.73;;;19.50;99.90;;;;;;5106850;28;20476;-69
2021/08/07 04:00:38;;;;;;;16.17;14.47;;;19.60;99.90;;;;;;5107649;28;20465;-69
2021/08/07 04:03:06;;;;;;;12.40;11.17;;;19.70;99.90;;;;;;5100696;28;20503;-68
2021/08/07 04:05:34;;;;;;;8.97;8.17;;;19.70;99.90;;;;;;5114656;28;20464;-69
2021/08/07 04:08:02;;;;;;;5.20;4.80;;;19.80;99.90;;;;;;5112836;28;20756;-69
2021/08/07 04:10:29;;;;;;;4.47;3.70;;;19.70;99.90;;;;;;5100617;28;20468;-69
2021/08/07 04:12:56;;;;;;;4.70;4.30;;;19.70;99.90;;;;;;5112177;27;20460;-69
2021/08/07 04:15:25;;;;;;;4.57;4.17;;;19.70;99.90;;;;;;5111773;27;20464;-69
2021/08/07 04:17:52;;;;;;;4.27;3.87;;;19.70;99.90;;;;;;5111909;27;20472;-69
2021/08/07 04:20:22;;;;;;;4.40;4.10;;;19.70;99.90;;;;;;5112203;27;20467;-69
2021/08/07 04:22:50;;;;;;;3.73;3.43;;;19.60;99.90;;;;;;5113773;27;20464;-68
2021/08/07 04:25:17;;;;;;;5.57;3.90;;;19.60;99.90;;;;;;5116988;27;20468;-69
2021/08/07 04:27:44;;;;;;;4.23;3.93;;;19.60;99.90;;;;;;5119590;27;20468;-69
2021/08/07 04:30:12;;;;;;;3.10;2.80;;;19.60;99.90;;;;;;5113612;27;20461;-69
2021/08/07 04:32:40;;;;;;;4.93;3.40;;;19.50;99.90;;;;;;5114074;27;20472;-69
2021/08/07 04:35:09;;;;;;;3.80;3.50;;;19.50;99.90;;;;;;5113401;27;20460;-68
2021/08/07 04:37:50;;;;;;;3.30;3.10;;;19.50;99.90;;;;;;5114259;27;20841;-69
2021/08/07 04:40:18;;;;;;;3.23;3.03;;;19.50;99.90;;;;;;5113762;27;20487;-69
2021/08/07 04:42:45;;;;;;;3.10;2.90;;;19.50;99.90;;;;;;5113956;27;20468;-69
2021/08/07 04:45:13;;;;;;;3.10;2.90;;;19.50;99.90;;;;;;5113374;27;20460;-69
2021/08/07 04:47:53;;;;;;;3.93;3.10;;;19.50;99.90;;;;;;5113711;27;20459;-69
2021/08/07 04:50:20;;;;;;;3.13;2.93;;;19.50;99.90;;;;;;5113554;27;20453;-68
2021/08/07 04:52:47;;;;;;;5.30;3.50;;;19.50;99.90;;;;;;5113695;27;20973;-67
2021/08/07 04:55:14;;;;;;;3.20;3.00;;;19.50;99.90;;;;;;5113220;27;20460;-68
2021/08/07 04:57:41;;;;;;;3.23;2.93;;;19.50;99.90;;;;;;5113571;27;20472;-68
2021/08/07 05:00:09;;;;;;;3.20;3.00;;;19.50;99.90;;;;;;5113083;27;20468;-68
2021/08/07 05:02:36;;;;;;;3.70;3.50;;;19.50;99.90;;;;;;5113747;27;20965;-69
2021/08/07 05:05:05;;;;;;;3.40;3.20;;;19.50;99.90;;;;;;5113113;27;20475;-68
2021/08/07 05:07:32;;;;;;;4.10;3.80;;;19.60;99.90;;;;;;5113661;27;20460;-68
2021/08/07 05:10:00;;;;;;;3.20;2.97;;;19.60;99.90;;;;;;5113303;27;20784;-67
2021/08/07 05:12:28;;;;;;;3.40;3.10;;;19.60;99.90;;;;;;5113363;27;20452;-68
2021/08/07 05:14:55;;;;;;;3.00;2.80;;;19.60;99.90;;;;;;5113397;27;20958;-67
2021/08/07 05:17:22;;;;;;;2.90;2.70;;;19.60;99.90;;;;;;5113160;27;20452;-67
2021/08/07 05:19:49;;;;;;;3.80;3.60;;;19.70;99.90;;;;;;5113275;27;20529;-67
2021/08/07 05:22:18;;;;;;;3.53;3.07;;;19.70;99.90;;;;;;5112841;27;20467;-67
2021/08/07 05:24:45;;;;;;;3.80;3.50;;;19.70;99.90;;;;;;5113556;27;20476;-67
2021/08/07 05:27:12;;;;;;;3.33;3.03;;;19.80;99.90;;;;;;5132289;27;20464;-67
2021/08/07 05:29:40;;;;;;;3.47;2.87;;;19.80;99.90;;;;;;5133422;27;20460;-67
2021/08/07 05:32:07;;;;;;;3.30;3.00;;;19.80;99.90;;;;;;5133386;27;20460;-68
2021/08/07 05:34:34;;;;;;;3.40;3.10;;;19.80;99.90;;;;;;5133915;27;20817;-68
2021/08/07 05:37:01;;;;;;;4.30;4.00;;;19.90;99.90;;;;;;5133490;27;20521;-67
2021/08/07 05:39:30;;;;;;;3.93;3.63;;;19.90;99.90;;;;;;5133381;27;20459;-68
2021/08/07 05:41:57;;;;;;;4.63;3.30;;;20.00;99.90;;;;;;5133809;27;20467;-68
2021/08/07 05:44:24;;;;;;;3.87;3.67;;;20.00;99.90;;;;;;5133120;27;20459;-69
2021/08/07 05:46:50;;;;;;;4.77;3.00;;;20.10;99.90;;;;;;5137240;27;20854;-68
2021/08/07 05:49:17;;;;;;;3.00;2.80;;;20.10;99.90;;;;;;5137124;27;20471;-68
2021/08/07 05:51:44;;;;;;;3.27;2.93;;;20.20;99.90;;;;;;5137806;27;20470;-68
2021/08/07 05:54:12;;;;;;;3.30;3.00;;;20.20;99.90;;;;;;5137488;27;20460;-68
2021/08/07 05:56:40;;;;;;;3.27;3.07;;;20.20;99.90;;;;;;5122886;27;20517;-68
2021/08/07 05:59:08;;;;;;;3.40;3.20;;;20.30;99.90;;;;;;5116692;27;20475;-68
2021/08/07 06:01:35;;;;;;;3.20;2.90;;;20.30;99.90;;;;;;5117119;27;20472;-68
2021/08/07 06:04:02;;;;;;;3.17;2.87;;;20.40;99.90;;;;;;5117008;27;20483;-69
2021/08/07 06:06:29;;;;;;;3.30;3.10;;;20.40;99.90;;;;;;5116573;27;20468;-69
2021/08/07 06:08:56;;;;;;;3.60;3.40;;;20.50;99.90;;;;;;5116904;27;20465;-68
2021/08/07 06:11:22;;;;;;;2.93;2.73;;;20.50;99.90;;;;;;5116206;27;20484;-69
2021/08/07 06:13:51;;;;;;;3.37;3.07;;;20.60;99.90;;;;;;5116861;27;20974;-68
2021/08/07 06:16:18;;;;;;;2.90;2.70;;;20.60;99.90;;;;;;5116361;27;21063;-68
2021/08/07 06:18:45;;;;;;;3.90;3.50;;;20.60;99.90;;;;;;5116579;27;20467;-69
2021/08/07 06:21:12;;;;;;;5.90;2.97;;;20.60;99.90;;;;;;5116455;27;20464;-69
2021/08/07 06:23:39;;;;;;;4.40;4.00;;;20.70;99.90;;;;;;5116466;27;20460;-68
2021/08/07 06:26:06;;;;;;;4.20;3.80;;;20.70;99.90;;;;;;5126715;27;20805;-68
2021/08/07 06:28:33;;;;;;;4.40;3.70;;;20.80;99.90;;;;;;5136831;27;21289;-68
2021/08/07 06:31:02;;;;;;;3.70;3.00;;;20.80;99.90;;;;;;5137046;27;20953;-68
2021/08/07 06:33:29;;;;;;;3.20;2.90;;;20.80;99.90;;;;;;5136780;27;21281;-68
2021/08/07 06:35:56;;;;;;;4.30;3.90;;;20.90;99.90;;;;;;5137052;27;20556;-69
2021/08/07 06:38:23;;;;;;;5.77;3.43;;;21.00;99.90;;;;;;5136368;27;21009;-68
2021/08/07 06:40:50;;;;;;;3.73;3.43;;;21.10;99.90;;;;;;5137038;27;20456;-68
2021/08/07 06:43:18;;;;;;;3.17;2.90;;;21.10;99.90;;;;;;5136507;27;20455;-68
2021/08/07 06:45:45;;;;;;;3.23;2.93;;;21.20;99.90;;;;;;5136806;27;20458;-68
2021/08/07 06:48:13;;;;;;;4.07;3.63;;;21.30;99.90;;;;;;5136217;27;20486;-68
2021/08/07 06:50:40;;;;;;;4.23;3.40;;;21.30;99.90;;;;;;5136648;27;20467;-68
2021/08/07 06:53:07;;;;;;;3.47;3.17;;;21.40;99.90;;;;;;5136868;27;20817;-68
2021/08/07 06:55:34;;;;;;;4.00;3.70;;;21.50;99.90;;;;;;5130460;27;20452;-68
2021/08/07 06:58:01;;;;;;;4.37;4.07;;;21.60;99.90;;;;;;5115650;27;20468;-68
2021/08/07 07:00:28;;;;;;;3.50;3.20;;;21.70;99.90;;;;;;5115257;27;20457;-67
2021/08/07 07:02:55;;;;;;;4.10;3.80;;;21.80;99.90;;;;;;5115910;27;20468;-68
2021/08/07 07:05:29;;;;;;;3.00;2.70;;;21.90;99.90;;;;;;5115460;27;20479;-68
2021/08/07 07:07:56;;;;;;;2.43;2.23;;;22.00;99.90;;;;;;5115667;27;20473;-68
2021/08/07 07:10:23;;;;;;;3.00;2.80;;;22.10;99.90;;;;;;5115238;27;20470;-68
2021/08/07 07:12:50;;;;;;;2.70;1.90;;;22.10;99.90;;;;;;5115515;27;20568;-68
2021/08/07 07:15:17;;;;;;;3.57;3.27;;;22.20;99.90;;;;;;5115029;27;20468;-68
2021/08/07 07:17:44;;;;;;;3.47;2.53;;;22.20;99.90;;;;;;5115522;27;20544;-68
2021/08/07 07:20:12;;;;;;;3.23;2.93;;;22.30;99.90;;;;;;5115646;27;20460;-69
2021/08/07 07:22:41;;;;;;;3.70;3.07;;;22.40;99.90;;;;;;5115045;27;20448;-69
2021/08/07 07:25:11;;;;;;;2.57;2.37;;;22.50;99.90;;;;;;5117553;27;20475;-69
2021/08/07 07:27:38;;;;;;;2.30;2.20;;;22.70;99.90;;;;;;5135639;27;20451;-69
2021/08/07 07:30:06;;;;;;;4.20;2.70;;;22.80;99.90;;;;;;5135748;27;20460;-69
2021/08/07 07:32:33;;;;;;;3.50;2.40;;;22.90;99.90;;;;;;5135530;27;20976;-69
2021/08/07 07:35:02;;;;;;;3.33;3.13;;;23.10;99.90;;;;;;5116150;27;20472;-69
2021/08/07 07:37:29;;;;;;;3.60;3.30;;;23.20;99.90;;;;;;5114643;27;20464;-69
2021/08/07 07:39:57;;;;;;;4.00;2.80;;;23.20;99.90;;;;;;5115435;27;20464;-69
2021/08/07 07:42:24;;;;;;;3.90;3.60;;;23.30;99.90;;;;;;5114714;27;20484;-66
2021/08/07 07:44:52;;;;;;;3.33;3.00;;;23.30;99.90;;;;;;5115167;27;20452;-67
2021/08/07 07:47:19;;;;;;;4.20;3.07;;;23.40;99.90;;;;;;5114565;27;20483;-68
2021/08/07 07:49:46;;;;;;;4.27;3.17;;;23.50;99.90;;;;;;5114557;27;20464;-67
2021/08/07 07:52:13;;;;;;;3.43;3.03;;;23.60;99.90;;;;;;5114994;27;20468;-67
2021/08/07 07:54:40;;;;;;;3.20;2.80;;;23.60;99.90;;;;;;5114397;27;20957;-67
2021/08/07 07:57:08;;;;;;;2.93;2.73;;;23.60;99.90;;;;;;5114675;27;20534;-67
2021/08/07 07:59:36;;;;;;;4.73;4.33;;;23.60;99.90;;;;;;5114384;27;20770;-67
2021/08/07 08:02:04;;;;;;;3.83;3.40;;;23.70;99.90;;;;;;5114843;27;20472;-68
2021/08/07 08:04:32;;;;;;;4.00;3.70;;;23.80;99.90;;;;;;5114113;27;20464;-67
2021/08/07 08:07:00;;;;;;;3.33;2.60;;;23.90;99.90;;;;;;5114794;27;20457;-68
2021/08/07 08:09:28;;;;;;;3.47;3.17;;;24.00;99.90;;;;;;5113330;27;20555;-67
2021/08/07 08:11:55;;;;;;;3.07;2.77;;;24.00;99.90;;;;;;5114498;27;20464;-68
2021/08/07 08:14:24;;;;;;;3.00;2.80;;;24.10;99.90;;;;;;5114047;27;20488;-66
2021/08/07 08:16:52;;;;;;;2.80;2.60;;;24.10;99.90;;;;;;5114569;27;20468;-69
2021/08/07 08:19:19;;;;;;;2.90;2.70;;;24.10;99.90;;;;;;5113851;27;20533;-68
2021/08/07 08:21:46;;;;;;;3.07;2.80;;;24.10;99.90;;;;;;5114268;27;20457;-69
2021/08/07 08:24:13;;;;;;;2.97;2.67;;;24.10;99.90;;;;;;5114495;27;20475;-68
2021/08/07 08:26:40;;;;;;;2.80;2.60;;;24.20;99.90;;;;;;5128759;27;20459;-68
2021/08/07 08:29:08;;;;;;;3.57;2.83;;;24.20;99.90;;;;;;5134572;27;21037;-68
2021/08/07 08:31:36;;;;;;;3.00;2.70;;;24.10;99.90;;;;;;5134225;27;20468;-69
2021/08/07 08:39:36;;;;;;;5.40;3.40;;;24.20;99.90;;;;;;5081729;27;20472;-68
2021/08/07 08:42:06;;;;;;;3.30;3.03;;;24.30;99.90;;;;;;5113969;27;20464;-68
2021/08/07 08:44:34;;;;;;;4.53;3.37;;;24.40;99.90;;;;;;5113515;27;20469;-69
2021/08/07 08:47:03;;;;;;;5.30;4.07;;;24.50;99.90;;;;;;5113867;27;20455;-68
2021/08/07 08:49:30;;;;;;;4.90;2.97;;;24.40;99.90;;;;;;5113250;27;20464;-68
2021/08/07 08:52:01;;;;;;;3.30;2.50;;;24.50;99.90;;;;;;5113780;27;20539;-69
2021/08/07 08:54:29;;;;;;;4.50;3.13;;;24.50;99.90;;;;;;5113399;27;20546;-68
2021/08/07 08:56:57;;;;;;;6.07;4.23;;;24.60;99.90;;;;;;5113645;27;20464;-68
2021/08/07 08:59:25;;;;;;;5.23;4.73;;;24.60;99.90;;;;;;5113528;27;20469;-68
2021/08/07 09:01:52;;;;;;;4.70;4.30;;;24.60;99.90;;;;;;5113065;27;20467;-68
2021/08/07 09:04:23;;;;;;;3.50;3.20;;;24.60;99.90;;;;;;5113392;27;20464;-68
2021/08/07 09:06:53;;;;;;;2.93;2.73;;;24.60;99.90;;;;;;5113337;27;20456;-68
2021/08/07 09:09:35;;;;;;;4.07;3.37;;;24.60;99.90;;;;;;5113241;27;20479;-69
2021/08/07 09:12:02;;;;;;;2.90;2.70;;;24.70;99.90;;;;;;5113139;27;20448;-69
2021/08/07 09:14:31;;;;;;;2.80;2.57;;;24.60;99.90;;;;;;5113388;27;20461;-68
2021/08/07 09:17:11;;;;;;;3.07;2.43;;;24.50;99.90;;;;;;5112992;27;20514;-68
2021/08/07 09:19:57;;;;;;;3.47;2.50;;;24.60;99.90;;;;;;5112605;27;20972;-68
2021/08/07 09:22:26;;;;;;;2.83;2.43;;;24.50;99.90;;;;;;5113339;27;20476;-67
2021/08/07 09:25:01;;;;;;;2.40;2.30;;;24.60;99.90;;;;;;5112853;27;20471;-68
2021/08/07 09:27:31;;;;;;;3.23;2.87;;;24.60;99.80;;;;;;5093097;28;20465;-68
2021/08/07 09:29:59;;;;;;;2.20;2.10;;;24.60;99.90;;;;;;5092480;28;20476;-67
2021/08/07 09:32:26;;;;;;;2.67;2.47;;;24.70;99.90;;;;;;5092803;28;20461;-68
2021/08/07 09:35:10;;;;;;;3.83;2.43;;;24.80;99.90;;;;;;5110871;27;20464;-68
2021/08/07 09:37:37;;;;;;;2.47;2.27;;;24.80;99.60;;;;;;5112872;27;20490;-68
2021/08/07 09:40:06;;;;;;;2.50;2.13;;;24.90;98.80;;;;;;5112973;27;20467;-68
2021/08/07 09:42:33;;;;;;;2.60;2.40;;;24.90;98.60;;;;;;5112957;27;20468;-68
2021/08/07 09:45:02;;;;;;;2.30;2.10;;;25.00;98.60;;;;;;5112557;27;20448;-69
2021/08/07 09:47:29;;;;;;;2.90;2.70;;;25.00;98.40;;;;;;5113177;27;20468;-67
2021/08/07 09:52:44;;;;;;;2.53;2.27;;;25.00;98.60;;;;;;5091252;27;20448;-69
2021/08/07 09:55:11;;;;;;;2.27;2.13;;;25.10;98.40;;;;;;5112864;27;20471;-67
2021/08/07 09:57:37;;;;;;;2.23;2.03;;;25.10;98.40;;;;;;5112866;27;20456;-68
2021/08/07 10:00:06;;;;;;;2.77;2.57;;;25.10;98.50;;;;;;5112400;27;20460;-69
2021/08/07 10:02:37;;;;;;;3.07;2.23;;;25.10;98.10;;;;;;5113212;27;20461;-68
2021/08/07 10:05:08;;;;;;;2.33;2.13;;;25.10;98.10;;;;;;5112492;27;20445;-68
2021/08/07 10:07:35;;;;;;;2.90;2.63;;;25.20;98.40;;;;;;5112649;27;20490;-68
2021/08/07 10:10:19;;;;;;;2.67;2.47;;;25.20;98.60;;;;;;5112326;27;20461;-68
2021/08/07 10:12:46;;;;;;;3.00;2.80;;;25.30;98.50;;;;;;5112458;27;20452;-69
2021/08/07 10:15:13;;;;;;;2.73;2.37;;;25.30;98.20;;;;;;5112926;27;20452;-68
2021/08/07 10:17:40;;;;;;;2.57;2.37;;;25.40;98.00;;;;;;5112628;27;20457;-68
2021/08/07 10:20:09;;;;;;;2.10;1.90;;;25.40;97.60;;;;;;5112653;27;21041;-68
2021/08/07 10:22:36;;;;;;;2.53;2.33;;;25.40;97.50;;;;;;5112916;27;20463;-68
2021/08/07 10:25:08;;;;;;;2.00;1.90;;;25.50;97.50;;;;;;5113334;27;20444;-68
2021/08/07 10:27:36;;;;;;;2.30;1.83;;;25.50;96.90;;;;;;5133081;27;20546;-68
2021/08/07 10:30:06;;;;;;;3.30;2.10;;;25.60;97.00;;;;;;5132825;27;20821;-68
2021/08/07 10:32:39;;;;;;;2.10;1.90;;;25.50;96.40;;;;;;5135787;27;21025;-68
2021/08/07 10:35:08;;;;;;;2.17;2.00;;;25.60;96.60;;;;;;5116027;27;20456;-67
2021/08/07 10:37:35;;;;;;;2.00;1.90;;;25.60;96.70;;;;;;5116348;27;20464;-68
2021/08/07 10:40:04;;;;;;;2.13;2.03;;;25.70;96.70;;;;;;5115984;27;20460;-68
2021/08/07 10:42:33;;;;;;;3.00;2.37;;;25.70;96.60;;;;;;5116291;27;20468;-68
2021/08/07 10:45:02;;;;;;;2.33;2.00;;;25.80;96.50;;;;;;5115838;27;20464;-68
2021/08/07 10:47:36;;;;;;;2.43;2.20;;;25.80;96.20;;;;;;5116084;27;20463;-68
2021/08/07 10:50:34;;;;;;;2.80;2.60;;;25.80;96.00;;;;;;5115745;27;20471;-69
2021/08/07 10:53:03;;;;;;;2.53;2.33;;;25.90;96.10;;;;;;5115980;27;20525;-67
2021/08/07 10:55:47;;;;;;;2.63;2.43;;;25.90;95.70;;;;;;5115936;27;20471;-68
2021/08/07 10:58:37;;;;;;;2.20;2.10;;;25.90;95.00;;;;;;5115689;27;20456;-67
2021/08/07 11:01:27;;;;;;;1.93;1.83;;;25.90;95.00;;;;;;5115559;27;20457;-68
2021/08/07 11:04:11;;;;;;;1.90;1.80;;;25.90;94.90;;;;;;5115267;27;20985;-68
2021/08/07 11:06:56;;;;;;;4.10;2.40;;;25.80;95.10;;;;;;5115741;27;20471;-70
2021/08/07 11:09:28;;;;;;;2.80;2.60;;;25.80;94.50;;;;;;5115441;27;21048;-67
2021/08/07 11:12:21;;;;;;;2.10;2.00;;;25.80;94.20;;;;;;5115808;27;20468;-67
2021/08/07 11:14:53;;;;;;;1.93;1.60;;;25.80;94.30;;;;;;5105356;27;20448;-67
2021/08/07 11:17:33;;;;;;;1.73;1.63;;;25.80;93.90;;;;;;5115844;27;20467;-68
2021/08/07 11:20:05;;;;;;;1.97;1.87;;;25.80;94.00;;;;;;5115333;27;20448;-68
2021/08/07 11:23:08;;;;;;;2.20;2.10;;;25.80;93.80;;;;;;5115630;27;20464;-67
2021/08/07 11:25:51;;;;;;;3.33;3.00;;;25.80;93.70;;;;;;5121148;27;20467;-69
2021/08/07 11:28:21;;;;;;;5.00;4.50;;;25.90;93.50;;;;;;5136020;27;20798;-69
2021/08/07 11:30:49;;;;;;;3.20;2.60;;;25.90;93.60;;;;;;5135553;27;20958;-67
2021/08/07 11:33:25;;;;;;;2.60;2.47;;;25.90;93.90;;;;;;5130930;27;20942;-67
2021/08/07 11:36:10;;;;;;;2.00;1.50;;;26.00;94.10;;;;;;5115197;27;21207;-68
2021/08/07 11:39:00;;;;;;;1.70;1.60;;;25.90;92.90;;;;;;5114856;27;20475;-68
2021/08/07 11:41:33;;;;;;;1.63;1.53;;;25.90;92.90;;;;;;5115133;27;20464;-67
2021/08/07 11:44:03;;;;;;;2.17;2.07;;;25.90;93.10;;;;;;5113641;27;20463;-67
2021/08/07 11:46:37;;;;;;;1.80;1.70;;;26.00;93.50;;;;;;5114937;27;20529;-67
2021/08/07 11:49:06;;;;;;;1.60;1.50;;;26.00;92.90;;;;;;5114529;27;21173;-68
2021/08/07 11:51:33;;;;;;;1.70;1.60;;;26.00;93.10;;;;;;5114979;27;20553;-67
2021/08/07 11:54:01;;;;;;;3.33;1.40;;;25.80;94.30;;;;;;5114485;27;20809;-67
2021/08/07 11:56:28;;;;;;;1.83;1.73;;;25.80;91.80;;;;;;5114903;27;20479;-67
2021/08/07 11:58:56;;;;;;;2.63;2.40;;;25.80;92.20;;;;;;5114279;27;20464;-67
2021/08/07 12:01:29;;;;;;;1.70;1.60;;;25.80;92.40;;;;;;5114715;27;20464;-68
2021/08/07 12:03:57;;;;;;;2.23;2.03;;;25.90;92.40;;;;;;5113963;27;20464;-67
2021/08/07 12:06:29;;;;;;;4.70;1.80;;;26.00;92.60;;;;;;5114698;27;20460;-68
2021/08/07 12:08:56;;;;;;;3.40;1.70;;;26.00;92.30;;;;;;5114087;27;20464;-67
2021/08/07 12:11:24;;;;;;;1.83;1.47;;;26.00;91.80;;;;;;5114570;27;20812;-67
2021/08/07 12:13:53;;;;;;;6.50;3.30;;;26.00;91.20;;;;;;5114228;27;20958;-67
2021/08/07 12:16:22;;;;;;;4.20;3.90;;;26.00;88.30;;;;;;5114463;27;20472;-67
2021/08/07 12:18:53;;;;;;;2.83;2.63;;;26.00;88.70;;;;;;5113881;27;20789;-68
2021/08/07 12:21:32;;;;;;;2.87;2.67;;;26.10;90.30;;;;;;5114645;27;20456;-67
2021/08/07 12:24:01;;;;;;;3.40;3.10;;;26.10;90.70;;;;;;5114066;27;20464;-67
2021/08/07 12:26:31;;;;;;;3.33;3.03;;;26.20;90.90;;;;;;5127251;27;20483;-67
2021/08/07 12:29:00;;;;;;;2.77;2.57;;;26.20;90.80;;;;;;5134085;27;20463;-67
2021/08/07 12:31:42;;;;;;;2.37;2.17;;;26.20;90.80;;;;;;5134806;27;20546;-67
2021/08/07 12:34:19;;;;;;;2.47;2.27;;;26.30;91.20;;;;;;5121916;27;20533;-69
2021/08/07 12:37:03;;;;;;;2.87;2.67;;;26.30;91.30;;;;;;5113651;27;20460;-68
2021/08/07 12:39:37;;;;;;;2.90;2.60;;;26.30;91.20;;;;;;5113939;27;20464;-68
2021/08/07 12:42:04;;;;;;;3.17;2.70;;;26.30;88.90;;;;;;5113550;27;20815;-67
2021/08/07 12:44:31;;;;;;;2.57;2.37;;;26.30;90.10;;;;;;5113975;27;20480;-67
2021/08/07 12:46:59;;;;;;;4.33;2.70;;;26.30;90.20;;;;;;5113481;27;20487;-68
2021/08/07 12:49:42;;;;;;;1.73;1.63;;;26.30;90.10;;;;;;5113632;27;20483;-68
2021/08/07 12:52:11;;;;;;;1.53;1.40;;;26.40;90.00;;;;;;5113372;27;20460;-67
2021/08/07 12:54:39;;;;;;;1.40;1.00;;;26.20;86.50;;;;;;5113352;27;20476;-68
2021/08/07 12:57:21;;;;;;;1.57;1.47;;;26.20;87.30;;;;;;5113422;27;20937;-67
2021/08/07 12:59:50;;;;;;;1.70;1.60;;;26.20;88.80;;;;;;5113148;27;20460;-67
2021/08/07 13:02:17;;;;;;;1.60;1.50;;;26.20;89.90;;;;;;5113542;27;20467;-67
2021/08/07 13:04:47;;;;;;;2.10;1.73;;;26.20;89.30;;;;;;5113663;27;20469;-67